createdAt,value
2019-05-30T00:00:05.753Z,52.03
2019-05-30T00:02:39.151Z,52.13
2019-05-30T00:05:25.791Z,52.14
2019-05-30T00:08:11.841Z,52.37
2019-05-30T00:10:58.534Z,52.19
2019-05-30T00:13:44.771Z,52.42
2019-05-30T00:16:30.745Z,52.89
2019-05-30T00:19:16.895Z,52.89
2019-05-30T00:22:03.946Z,52.92
2019-05-30T00:24:51.220Z,52.77
2019-05-30T00:27:37.512Z,52.96
2019-05-30T00:30:26.382Z,53.03
2019-05-30T00:33:12.655Z,53.09
2019-05-30T00:35:59.946Z,53.42
2019-05-30T00:38:46.210Z,53.89
2019-05-30T00:41:32.461Z,53.82
2019-05-30T00:44:18.476Z,54.18
2019-05-30T00:47:04.746Z,54.36
2019-05-30T00:49:51.250Z,54.41
2019-05-30T00:52:37.676Z,54.66
2019-05-30T00:55:23.640Z,55.09
2019-05-30T00:58:09.792Z,55.17
2019-05-30T01:00:59.048Z,55.49
2019-05-30T01:03:45.350Z,55.44
2019-05-30T01:06:31.481Z,56.02
2019-05-30T01:09:17.736Z,56.14
2019-05-30T01:12:05.300Z,56.67
2019-05-30T01:14:51.714Z,56.40
2019-05-30T01:17:39.179Z,56.58
2019-05-30T01:20:25.593Z,56.75
2019-05-30T01:23:11.601Z,57.06
2019-05-30T01:25:59.218Z,57.12
2019-05-30T01:28:45.776Z,57.23
2019-05-30T01:31:31.860Z,57.53
2019-05-30T01:34:18.008Z,57.51
2019-05-30T01:37:04.176Z,57.81
2019-05-30T01:39:50.261Z,58.01
2019-05-30T01:42:36.457Z,58.01
2019-05-30T01:45:22.400Z,58.34
2019-05-30T01:48:08.674Z,58.29
2019-05-30T01:50:55.260Z,58.57
2019-05-30T01:53:41.480Z,58.69
2019-05-30T01:56:27.716Z,58.67
2019-05-30T01:59:13.995Z,59.08
2019-05-30T02:02:00.916Z,59.13
2019-05-30T02:04:47.476Z,59.43
2019-05-30T02:07:33.896Z,59.55
2019-05-30T02:10:19.888Z,59.64
2019-05-30T02:13:06.007Z,59.75
2019-05-30T02:15:52.216Z,59.94
2019-05-30T02:18:38.357Z,60.35
2019-05-30T02:21:24.632Z,60.30
2019-05-30T02:24:12.155Z,60.48
2019-05-30T02:27:00.006Z,60.63
2019-05-30T02:29:46.665Z,60.86
2019-05-30T02:32:32.826Z,61.05
2019-05-30T02:35:18.955Z,61.31
2019-05-30T02:38:05.422Z,61.50
2019-05-30T02:40:53.146Z,61.73
2019-05-30T02:43:39.374Z,62.02
2019-05-30T02:46:25.555Z,62.20
2019-05-30T02:49:13.846Z,62.14
2019-05-30T02:51:59.886Z,62.38
2019-05-30T02:54:46.127Z,62.73
2019-05-30T02:57:32.442Z,62.73
2019-05-30T03:00:24.868Z,62.83
2019-05-30T03:03:13.914Z,63.06
2019-05-30T03:05:58.766Z,63.02
2019-05-30T03:08:45.237Z,63.26
2019-05-30T03:11:31.088Z,63.36
2019-05-30T03:14:19.710Z,63.74
2019-05-30T03:17:07.826Z,63.54
2019-05-30T03:19:53.928Z,63.70
2019-05-30T03:22:40.082Z,63.78
2019-05-30T03:25:26.280Z,64.13
2019-05-30T03:28:13.652Z,63.96
2019-05-30T03:30:59.837Z,64.25
2019-05-30T03:33:46.177Z,63.61
2019-05-30T03:36:32.335Z,63.41
2019-05-30T03:39:18.312Z,63.45
2019-05-30T03:42:06.762Z,63.25
2019-05-30T03:44:52.681Z,63.06
2019-05-30T03:47:41.110Z,63.02
2019-05-30T03:50:29.330Z,63.26
2019-05-30T03:53:16.345Z,63.15
2019-05-30T03:56:09.032Z,63.67
2019-05-30T03:59:14.817Z,63.79
2019-05-30T04:02:19.843Z,64.07
2019-05-30T04:05:07.537Z,64.32
2019-05-30T04:07:55.666Z,64.25
2019-05-30T04:10:43.098Z,64.63
2019-05-30T04:13:43.761Z,64.71
2019-05-30T04:16:30.163Z,64.79
2019-05-30T04:19:17.735Z,65.06
2019-05-30T04:22:04.371Z,64.98
2019-05-30T04:24:50.716Z,65.05
2019-05-30T04:27:36.898Z,65.01
2019-05-30T04:30:23.085Z,65.30
2019-05-30T04:33:22.528Z,65.12
2019-05-30T04:35:57.551Z,65.32
2019-05-30T04:38:43.717Z,65.06
2019-05-30T04:41:30.003Z,65.19
2019-05-30T04:44:17.929Z,65.39
2019-05-30T04:47:04.176Z,65.58
2019-05-30T04:49:50.667Z,65.50
2019-05-30T04:52:36.600Z,65.65
2019-05-30T04:55:23.225Z,65.55
2019-05-30T04:58:11.004Z,65.56
2019-05-30T05:00:57.821Z,65.53
2019-05-30T05:03:46.525Z,65.51
2019-05-30T05:06:31.987Z,65.82
2019-05-30T05:09:20.120Z,65.38
2019-05-30T05:12:06.516Z,65.12
2019-05-30T05:14:52.621Z,64.72
2019-05-30T05:17:39.091Z,64.21
2019-05-30T05:20:26.616Z,64.44
2019-05-30T05:23:13.060Z,64.03
2019-05-30T05:26:01.316Z,63.87
2019-05-30T05:28:47.796Z,63.50
2019-05-30T05:31:33.806Z,64.28
2019-05-30T05:34:21.351Z,64.44
2019-05-30T05:37:07.445Z,64.34
2019-05-30T05:39:53.720Z,64.69
2019-05-30T05:42:39.990Z,65.00
2019-05-30T05:45:26.155Z,65.09
2019-05-30T05:48:12.310Z,64.96
2019-05-30T05:50:58.840Z,65.06
2019-05-30T05:53:44.975Z,65.64
2019-05-30T05:56:31.174Z,64.89
2019-05-30T05:59:18.851Z,65.14
2019-05-30T06:02:07.322Z,64.68
2019-05-30T06:04:53.508Z,64.31
2019-05-30T06:07:39.670Z,64.66
2019-05-30T06:10:25.872Z,64.26
2019-05-30T06:13:11.828Z,63.70
2019-05-30T06:15:58.031Z,63.84
2019-05-30T06:18:44.035Z,64.16
2019-05-30T06:21:30.331Z,63.82
2019-05-30T06:24:17.645Z,63.64
2019-05-30T06:27:04.001Z,62.80
2019-05-30T06:29:50.353Z,62.87
2019-05-30T06:32:36.281Z,62.06
2019-05-30T06:35:23.001Z,62.53
2019-05-30T06:38:09.380Z,61.40
2019-05-30T06:40:55.250Z,61.66
2019-05-30T06:43:41.291Z,61.78
2019-05-30T06:46:28.394Z,61.43
2019-05-30T06:49:15.066Z,61.23
2019-05-30T06:52:01.279Z,61.46
2019-05-30T06:54:47.477Z,60.30
2019-05-30T06:57:33.481Z,59.97
2019-05-30T07:00:21.732Z,59.82
2019-05-30T07:03:07.995Z,60.25
2019-05-30T07:05:54.470Z,59.75
2019-05-30T07:08:41.006Z,59.80
2019-05-30T07:11:27.256Z,58.96
2019-05-30T07:14:13.330Z,58.48
2019-05-30T07:16:59.381Z,58.84
2019-05-30T07:19:45.545Z,58.82
2019-05-30T07:22:31.910Z,58.98
2019-05-30T07:25:18.412Z,59.65
2019-05-30T07:28:04.911Z,59.63
2019-05-30T07:30:50.975Z,59.85
2019-05-30T07:33:37.147Z,59.55
2019-05-30T07:36:24.076Z,59.35
2019-05-30T07:39:10.471Z,59.56
2019-05-30T07:42:06.143Z,59.69
2019-05-30T07:44:45.046Z,59.98
2019-05-30T07:47:32.155Z,60.41
2019-05-30T07:50:19.442Z,59.78
2019-05-30T07:53:05.683Z,60.19
2019-05-30T07:55:51.869Z,60.18
2019-05-30T07:58:37.980Z,60.01
2019-05-30T08:01:24.095Z,59.89
2019-05-30T08:04:10.291Z,60.07
2019-05-30T08:06:56.535Z,59.60
2019-05-30T08:09:42.717Z,59.05
2019-05-30T08:12:30.078Z,58.77
2019-05-30T08:15:16.436Z,58.70
2019-05-30T08:18:02.722Z,58.05
2019-05-30T08:20:48.875Z,58.89
2019-05-30T08:23:36.217Z,59.74
2019-05-30T08:26:22.751Z,58.73
2019-05-30T08:29:08.660Z,58.99
2019-05-30T08:31:54.916Z,59.03
2019-05-30T08:34:41.065Z,59.23
2019-05-30T08:37:27.161Z,58.19
2019-05-30T08:40:13.947Z,58.97
2019-05-30T08:43:00.105Z,58.48
2019-05-30T08:45:46.412Z,59.72
2019-05-30T08:48:33.288Z,59.84
2019-05-30T08:51:20.910Z,61.21
2019-05-30T08:54:07.087Z,61.68
2019-05-30T08:56:53.316Z,62.59
2019-05-30T08:59:40.643Z,63.13
2019-05-30T09:02:27.054Z,61.72
2019-05-30T09:05:14.643Z,61.26
2019-05-30T09:08:00.757Z,61.30
2019-05-30T09:10:46.798Z,60.62
2019-05-30T09:13:33.295Z,61.15
2019-05-30T09:16:19.096Z,61.18
2019-05-30T09:19:05.268Z,61.17
2019-05-30T09:21:52.337Z,60.02
2019-05-30T09:24:39.153Z,59.89
2019-05-30T09:27:26.661Z,59.07
2019-05-30T09:30:13.351Z,59.29
2019-05-30T09:32:59.150Z,58.42
2019-05-30T09:35:45.246Z,57.71
2019-05-30T09:38:31.432Z,57.77
2019-05-30T09:41:17.550Z,58.06
2019-05-30T09:44:04.880Z,58.08
2019-05-30T09:46:50.676Z,57.62
2019-05-30T09:49:36.910Z,57.33
2019-05-30T09:52:23.101Z,57.45
2019-05-30T09:55:09.631Z,56.91
2019-05-30T09:57:55.751Z,57.62
2019-05-30T10:00:43.469Z,57.92
2019-05-30T10:03:30.302Z,58.02
2019-05-30T10:06:28.444Z,57.78
2019-05-30T10:09:07.173Z,57.84
2019-05-30T10:11:53.550Z,58.35
2019-05-30T10:14:39.886Z,57.89
2019-05-30T10:17:26.057Z,58.43
2019-05-30T10:20:13.747Z,58.03
2019-05-30T10:23:03.312Z,59.26
2019-05-30T10:25:48.406Z,58.38
2019-05-30T10:28:35.616Z,58.10
2019-05-30T10:31:21.796Z,58.69
2019-05-30T10:34:07.786Z,58.69
2019-05-30T10:36:54.239Z,59.02
2019-05-30T10:39:40.379Z,58.59
2019-05-30T10:42:26.663Z,59.33
2019-05-30T10:45:13.520Z,59.86
2019-05-30T10:47:59.960Z,59.64
2019-05-30T10:50:48.268Z,59.67
2019-05-30T10:53:37.482Z,59.11
2019-05-30T10:56:22.719Z,58.82
2019-05-30T10:59:08.741Z,58.94
2019-05-30T11:01:54.919Z,60.15
2019-05-30T11:04:41.049Z,60.72
2019-05-30T11:08:03.856Z,61.53
2019-05-30T11:10:43.622Z,61.41
2019-05-30T11:13:29.667Z,60.32
2019-05-30T11:16:16.006Z,60.78
2019-05-30T11:19:07.228Z,61.30
2019-05-30T11:21:50.260Z,62.20
2019-05-30T11:24:36.460Z,62.36
2019-05-30T11:27:22.780Z,62.48
2019-05-30T11:30:09.420Z,62.70
2019-05-30T11:32:55.380Z,63.63
2019-05-30T11:35:41.480Z,63.55
2019-05-30T11:38:27.919Z,64.22
2019-05-30T11:41:16.399Z,64.18
2019-05-30T11:44:04.200Z,63.68
2019-05-30T11:46:51.820Z,63.42
2019-05-30T11:49:38.889Z,64.03
2019-05-30T11:52:25.361Z,63.65
2019-05-30T11:55:12.380Z,63.54
2019-05-30T11:57:58.523Z,63.74
2019-05-30T12:00:45.321Z,63.68
2019-05-30T12:03:31.597Z,63.28
2019-05-30T12:06:18.040Z,63.01
2019-05-30T12:09:06.809Z,62.52
2019-05-30T12:11:53.181Z,62.33
2019-05-30T12:14:39.621Z,62.67
2019-05-30T12:17:25.820Z,62.96
2019-05-30T12:20:12.360Z,62.71
2019-05-30T12:22:58.480Z,63.42
2019-05-30T12:25:44.879Z,63.42
2019-05-30T12:28:30.800Z,63.28
2019-05-30T12:31:16.959Z,63.12
2019-05-30T12:34:03.679Z,63.82
2019-05-30T12:36:49.840Z,63.97
2019-05-30T12:39:36.341Z,64.16
2019-05-30T12:42:22.439Z,64.17
2019-05-30T12:45:09.302Z,64.04
2019-05-30T12:47:55.259Z,63.55
2019-05-30T12:50:41.542Z,63.63
2019-05-30T12:53:27.665Z,63.45
2019-05-30T12:56:13.947Z,64.03
2019-05-30T12:59:01.098Z,64.15
2019-05-30T13:01:47.653Z,64.42
2019-05-30T13:04:33.977Z,64.40
2019-05-30T13:07:19.934Z,64.82
2019-05-30T13:10:07.914Z,64.22
2019-05-30T13:12:53.792Z,64.93
2019-05-30T13:15:40.027Z,65.29
2019-05-30T13:18:26.147Z,65.00
2019-05-30T13:21:12.402Z,64.94
2019-05-30T13:23:59.578Z,64.71
2019-05-30T13:26:45.548Z,64.37
2019-05-30T13:29:32.013Z,64.53
2019-05-30T13:32:17.872Z,64.76
2019-05-30T13:35:05.423Z,64.42
2019-05-30T13:37:51.847Z,64.16
2019-05-30T13:40:38.117Z,64.53
2019-05-30T13:43:27.748Z,64.71
2019-05-30T13:46:12.917Z,64.95
2019-05-30T13:49:00.825Z,64.64
2019-05-30T13:51:47.577Z,64.56
2019-05-30T13:54:33.547Z,64.25
2019-05-30T13:57:19.577Z,64.62
2019-05-30T14:00:08.138Z,64.77
2019-05-30T14:02:54.589Z,64.51
2019-05-30T14:05:41.018Z,63.81
2019-05-30T14:08:40.780Z,64.32
2019-05-30T14:11:16.307Z,64.18
2019-05-30T14:14:02.800Z,64.51
2019-05-30T14:16:49.126Z,64.09
2019-05-30T14:19:36.345Z,63.88
2019-05-30T14:22:22.643Z,64.78
2019-05-30T14:25:09.775Z,65.09
2019-05-30T14:27:55.732Z,65.46
2019-05-30T14:30:43.042Z,65.83
2019-05-30T14:33:29.262Z,65.75
2019-05-30T14:36:15.441Z,65.55
2019-05-30T14:39:02.600Z,65.75
2019-05-30T14:41:49.147Z,65.79
2019-05-30T14:44:35.317Z,65.62
2019-05-30T14:47:21.788Z,65.60
2019-05-30T14:50:08.993Z,65.42
2019-05-30T14:52:55.223Z,66.21
2019-05-30T14:55:41.532Z,65.56
2019-05-30T14:58:27.675Z,66.77
2019-05-30T15:01:13.962Z,66.71
2019-05-30T15:03:59.952Z,66.82
2019-05-30T15:06:46.131Z,66.74
2019-05-30T15:09:32.358Z,67.04
2019-05-30T15:12:18.487Z,66.96
2019-05-30T15:15:07.333Z,67.08
2019-05-30T15:17:53.085Z,67.05
2019-05-30T15:20:39.053Z,67.63
2019-05-30T15:23:25.208Z,67.84
2019-05-30T15:26:12.124Z,67.90
2019-05-30T15:28:58.253Z,67.67
2019-05-30T15:31:44.442Z,67.27
2019-05-30T15:34:30.912Z,67.03
2019-05-30T15:37:17.107Z,67.52
2019-05-30T15:40:03.242Z,67.96
2019-05-30T15:42:53.060Z,67.74
2019-05-30T15:45:38.024Z,67.72
2019-05-30T15:48:24.142Z,67.62
2019-05-30T15:51:10.611Z,67.28
2019-05-30T15:53:56.698Z,67.13
2019-05-30T15:56:42.987Z,67.59
2019-05-30T15:59:29.313Z,68.09
2019-05-30T16:02:16.114Z,68.35
2019-05-30T16:05:04.497Z,68.34
2019-05-30T16:07:50.913Z,68.39
2019-05-30T16:10:37.208Z,68.47
2019-05-30T16:13:23.432Z,68.50
2019-05-30T16:16:09.808Z,69.00
2019-05-30T16:18:56.014Z,69.04
2019-05-30T16:21:42.113Z,68.90
2019-05-30T16:24:29.477Z,69.58
2019-05-30T16:27:15.855Z,69.53
2019-05-30T16:30:02.813Z,69.80
2019-05-30T16:32:49.767Z,69.79
2019-05-30T16:35:35.708Z,69.68
2019-05-30T16:38:22.248Z,69.87
2019-05-30T16:41:08.167Z,70.25
2019-05-30T16:43:54.143Z,70.23
2019-05-30T16:46:40.374Z,70.34
2019-05-30T16:49:26.946Z,70.46
2019-05-30T16:52:13.061Z,70.25
2019-05-30T16:54:59.342Z,70.38
2019-05-30T16:57:45.448Z,70.34
2019-05-30T17:00:31.549Z,70.00
2019-05-30T17:03:17.844Z,70.16
2019-05-30T17:06:04.157Z,70.30
2019-05-30T17:08:50.138Z,70.60
2019-05-30T17:11:36.238Z,69.97
2019-05-30T17:14:22.462Z,70.22
2019-05-30T17:17:08.654Z,70.39
2019-05-30T17:19:54.738Z,71.03
2019-05-30T17:22:40.912Z,71.06
2019-05-30T17:25:27.259Z,71.10
2019-05-30T17:28:14.993Z,71.71
2019-05-30T17:31:01.297Z,72.27
2019-05-30T17:33:47.662Z,72.01
2019-05-30T17:36:33.802Z,71.24
2019-05-30T17:39:20.418Z,70.68
2019-05-30T17:42:06.645Z,70.43
2019-05-30T17:44:52.772Z,70.91
2019-05-30T17:47:38.893Z,71.07
2019-05-30T17:50:25.814Z,71.11
2019-05-30T17:53:12.337Z,71.67
2019-05-30T17:55:59.474Z,71.37
2019-05-30T17:58:46.293Z,71.41
2019-05-30T18:01:32.167Z,71.59
2019-05-30T18:04:18.348Z,71.16
2019-05-30T18:07:04.797Z,70.95
2019-05-30T18:09:50.817Z,71.40
2019-05-30T18:12:37.033Z,71.43
2019-05-30T18:15:26.266Z,71.85
2019-05-30T18:18:11.502Z,72.29
2019-05-30T18:20:57.653Z,72.25
2019-05-30T18:23:44.840Z,72.80
2019-05-30T18:26:31.861Z,73.05
2019-05-30T18:29:19.055Z,73.73
2019-05-30T18:32:05.512Z,73.87
2019-05-30T18:34:51.599Z,74.08
2019-05-30T18:37:38.090Z,74.24
2019-05-30T18:40:33.268Z,74.36
2019-05-30T18:43:19.598Z,74.32
2019-05-30T18:46:05.774Z,74.55
2019-05-30T18:48:51.853Z,75.40
2019-05-30T18:51:38.062Z,75.44
2019-05-30T18:54:24.419Z,75.39
2019-05-30T18:57:11.083Z,75.76
2019-05-30T18:59:57.205Z,75.80
2019-05-30T19:02:43.178Z,76.09
2019-05-30T19:05:30.413Z,76.46
2019-05-30T19:08:17.033Z,76.55
2019-05-30T19:11:03.377Z,76.58
2019-05-30T19:13:50.137Z,76.49
2019-05-30T19:16:37.085Z,76.96
2019-05-30T19:19:23.225Z,77.45
2019-05-30T19:22:09.408Z,77.75
2019-05-30T19:24:56.463Z,77.65
2019-05-30T19:27:42.758Z,78.16
2019-05-30T19:30:29.107Z,78.22
2019-05-30T19:33:15.527Z,78.41
2019-05-30T19:36:01.774Z,78.35
2019-05-30T19:38:47.817Z,78.49
2019-05-30T19:41:45.932Z,78.18
2019-05-30T19:44:22.232Z,78.58
2019-05-30T19:47:08.358Z,78.67
2019-05-30T19:49:54.593Z,78.68
2019-05-30T19:52:41.208Z,79.40
2019-05-30T19:55:27.440Z,79.66
2019-05-30T19:58:14.514Z,80.01
2019-05-30T20:01:00.557Z,79.88
2019-05-30T20:03:47.181Z,80.31
2019-05-30T20:06:34.591Z,80.42
2019-05-30T20:09:21.167Z,80.25
2019-05-30T20:12:08.935Z,80.07
2019-05-30T20:14:55.563Z,80.11
2019-05-30T20:17:42.015Z,80.29
2019-05-30T20:20:28.303Z,80.25
2019-05-30T20:23:14.402Z,80.18
2019-05-30T20:26:00.527Z,80.19
2019-05-30T20:28:46.762Z,80.20
2019-05-30T20:31:33.317Z,80.33
2019-05-30T20:34:19.330Z,80.30
2019-05-30T20:37:05.604Z,80.32
2019-05-30T20:39:51.622Z,80.34
2019-05-30T20:42:38.879Z,80.26
2019-05-30T20:45:25.472Z,80.20
2019-05-30T20:48:11.473Z,80.30
2019-05-30T20:50:57.607Z,80.31
2019-05-30T20:53:43.906Z,80.33
2019-05-30T20:56:30.037Z,80.57
2019-05-30T20:59:16.033Z,80.65
2019-05-30T21:02:02.283Z,80.71
2019-05-30T21:04:48.478Z,80.59
2019-05-30T21:07:35.865Z,80.66
2019-05-30T21:10:22.428Z,80.74
2019-05-30T21:13:08.412Z,80.76
2019-05-30T21:15:56.063Z,80.71
2019-05-30T21:18:45.937Z,80.94
2019-05-30T21:21:32.214Z,80.87
2019-05-30T21:24:18.307Z,80.88
2019-05-30T21:27:04.834Z,80.84
2019-05-30T21:29:50.684Z,80.78
2019-05-30T21:32:37.669Z,80.75
2019-05-30T21:35:24.982Z,80.64
2019-05-30T21:38:11.013Z,80.32
2019-05-30T21:40:57.162Z,80.17
2019-05-30T21:43:44.475Z,80.25
2019-05-30T21:46:31.525Z,79.87
2019-05-30T21:49:17.812Z,79.67
2019-05-30T21:52:04.138Z,79.48
2019-05-30T21:54:50.307Z,79.46
2019-05-30T21:57:39.767Z,79.55
2019-05-30T22:01:00.456Z,79.60
2019-05-30T22:03:47.072Z,79.65
2019-05-30T22:06:33.232Z,79.90
2019-05-30T22:09:19.257Z,79.93
2019-05-30T22:12:05.562Z,80.04
2019-05-30T22:14:51.979Z,79.66
2019-05-30T22:17:38.392Z,79.70
2019-05-30T22:20:24.659Z,79.74
2019-05-30T22:23:11.178Z,79.75
2019-05-30T22:25:57.540Z,79.81
2019-05-30T22:28:44.367Z,79.75
2019-05-30T22:31:30.892Z,79.72
2019-05-30T22:34:18.027Z,79.61
2019-05-30T22:37:04.214Z,79.60
2019-05-30T22:39:51.014Z,79.56
2019-05-30T22:42:37.352Z,79.57
2019-05-30T22:45:23.380Z,79.66
2019-05-30T22:48:09.513Z,79.62
2019-05-30T22:50:56.940Z,79.61
2019-05-30T22:53:43.344Z,79.69
2019-05-30T22:56:29.367Z,79.61
2019-05-30T22:59:15.798Z,79.62
2019-05-30T23:04:42.892Z,79.30
2019-05-30T23:07:29.970Z,79.38
2019-05-30T23:10:16.854Z,79.00
2019-05-30T23:13:03.330Z,79.13
2019-05-30T23:15:50.084Z,79.10
2019-05-30T23:18:36.547Z,79.36
2019-05-30T23:21:22.814Z,79.70
2019-05-30T23:24:09.092Z,79.47
2019-05-30T23:26:55.878Z,79.28
2019-05-30T23:29:42.272Z,79.84
2019-05-30T23:32:28.736Z,79.63
2019-05-30T23:35:15.242Z,79.62
2019-05-30T23:38:01.769Z,79.52
2019-05-30T23:40:48.935Z,79.62
2019-05-30T23:43:36.685Z,80.27
2019-05-30T23:46:23.262Z,79.81
